createdAt,value
2023-04-07T00:01:40.420Z,60.38
2023-04-07T00:04:07.953Z,68.40
2023-04-07T00:06:34.897Z,74.00
2023-04-07T00:09:02.399Z,78.43
2023-04-07T00:11:29.075Z,85.38
2023-04-07T00:13:56.465Z,89.57
2023-04-07T00:16:23.650Z,90.53
2023-04-07T00:18:50.928Z,106.93
2023-04-07T00:21:17.545Z,108.43
2023-04-07T00:23:45.195Z,118.30
2023-04-07T00:26:11.771Z,125.00
2023-04-07T00:28:41.036Z,128.35
2023-04-07T00:31:07.673Z,136.27
2023-04-07T00:33:35.000Z,134.25
2023-04-07T00:36:01.654Z,136.05
2023-04-07T00:38:28.951Z,137.30
2023-04-07T00:40:59.692Z,139.23
2023-04-07T00:43:27.676Z,152.95
2023-04-07T00:45:54.860Z,151.25
2023-04-07T00:48:22.465Z,154.88
2023-04-07T00:50:49.173Z,153.15
2023-04-07T00:53:16.920Z,149.77
2023-04-07T00:55:43.817Z,168.20
2023-04-07T00:58:11.228Z,160.68
2023-04-07T01:00:51.513Z,158.93
2023-04-07T01:03:33.922Z,153.23
2023-04-07T01:06:06.634Z,157.45
2023-04-07T01:11:28.619Z,152.13
2023-04-07T01:13:59.972Z,149.85
2023-04-07T01:16:53.085Z,153.60
2023-04-07T01:19:43.034Z,155.73
2023-04-07T01:22:17.202Z,143.30
2023-04-07T01:25:22.457Z,150.60
2023-04-07T01:28:02.317Z,151.10
2023-04-07T01:30:33.054Z,156.38
2023-04-07T01:33:02.175Z,174.82
2023-04-07T01:35:32.973Z,153.55
2023-04-07T01:38:01.408Z,145.13
2023-04-07T01:40:29.520Z,153.70
2023-04-07T01:43:01.368Z,159.02
2023-04-07T01:45:29.348Z,151.77
2023-04-07T01:47:56.543Z,156.90
2023-04-07T01:50:24.528Z,163.73
2023-04-07T01:52:52.056Z,155.18
2023-04-07T01:55:19.480Z,162.45
2023-04-07T01:57:58.736Z,149.18
2023-04-07T02:00:26.201Z,151.88
2023-04-07T02:02:59.611Z,147.93
2023-04-07T02:05:30.698Z,142.38
2023-04-07T02:08:03.430Z,149.15
2023-04-07T02:10:37.203Z,138.43
2023-04-07T02:13:06.404Z,149.52
2023-04-07T02:15:34.270Z,141.88
2023-04-07T02:18:01.942Z,145.77
2023-04-07T02:20:30.677Z,144.70
2023-04-07T02:22:58.036Z,136.02
2023-04-07T02:25:27.475Z,126.20
2023-04-07T02:27:56.235Z,114.10
2023-04-07T02:30:24.638Z,105.05
2023-04-07T02:32:51.672Z,94.15
2023-04-07T02:35:20.727Z,76.13
2023-04-07T02:37:47.934Z,71.07
2023-04-07T02:40:16.040Z,72.43
2023-04-07T02:42:43.032Z,68.40
2023-04-07T02:45:11.485Z,65.68
2023-04-07T02:47:39.036Z,60.88
2023-04-07T02:50:07.008Z,67.03
2023-04-07T02:52:35.671Z,63.42
2023-04-07T02:55:07.533Z,56.17
2023-04-07T02:57:35.086Z,59.42
2023-04-07T03:00:05.953Z,64.30
2023-04-07T03:02:51.350Z,61.22
2023-04-07T03:05:19.644Z,58.30
2023-04-07T03:07:46.364Z,55.38
2023-04-07T03:10:13.947Z,52.50
2023-04-07T03:12:41.183Z,60.55
2023-04-07T03:15:08.389Z,61.03
2023-04-07T03:17:36.982Z,59.38
2023-04-07T03:20:05.716Z,70.63
2023-04-07T03:22:35.473Z,58.45
2023-04-07T03:25:02.597Z,65.18
2023-04-07T03:27:29.385Z,63.53
2023-04-07T03:29:57.628Z,68.75
2023-04-07T03:32:27.189Z,68.03
2023-04-07T03:34:53.854Z,80.80
2023-04-07T03:37:21.324Z,75.88
2023-04-07T03:39:49.859Z,65.63
2023-04-07T03:42:30.880Z,74.45
2023-04-07T03:45:02.271Z,67.72
2023-04-07T03:47:31.203Z,61.30
2023-04-07T03:50:01.436Z,65.47
2023-04-07T03:52:31.768Z,51.28
2023-04-07T03:55:07.146Z,61.08
2023-04-07T03:57:34.709Z,52.47
2023-04-07T04:00:02.815Z,54.55
2023-04-07T04:02:43.408Z,61.20
2023-04-07T04:05:14.500Z,48.47
2023-04-07T04:07:41.145Z,55.20
2023-04-07T04:10:09.072Z,54.45
2023-04-07T04:12:41.542Z,50.58
2023-04-07T04:15:11.385Z,51.35
2023-04-07T04:17:39.358Z,50.53
2023-04-07T04:20:08.765Z,49.85
2023-04-07T04:22:41.721Z,50.38
2023-04-07T04:25:09.598Z,49.90
2023-04-07T04:27:36.673Z,52.13
2023-04-07T04:30:09.998Z,40.53
2023-04-07T04:32:46.517Z,48.45
2023-04-07T04:35:16.215Z,46.65
2023-04-07T04:37:53.214Z,40.03
2023-04-07T04:40:21.009Z,45.38
2023-04-07T04:42:49.338Z,43.00
2023-04-07T04:45:17.987Z,45.40
2023-04-07T04:47:47.577Z,42.72
2023-04-07T04:50:14.898Z,35.85
2023-04-07T04:52:43.615Z,36.25
2023-04-07T04:55:18.742Z,35.83
2023-04-07T04:57:46.589Z,35.38
2023-04-07T05:00:18.734Z,38.10
2023-04-07T05:02:48.188Z,35.28
2023-04-07T05:05:15.979Z,36.17
2023-04-07T05:07:43.590Z,39.30
2023-04-07T05:10:13.581Z,31.77
2023-04-07T05:12:46.733Z,34.22
2023-04-07T05:15:15.490Z,33.53
2023-04-07T05:17:44.519Z,29.20
2023-04-07T05:20:14.196Z,32.05
2023-04-07T05:22:41.797Z,33.08
2023-04-07T05:25:12.859Z,31.90
2023-04-07T05:27:41.962Z,28.88
2023-04-07T05:30:14.418Z,22.77
2023-04-07T05:32:41.154Z,26.98
2023-04-07T05:35:17.436Z,28.88
2023-04-07T05:37:50.551Z,32.38
2023-04-07T05:40:18.508Z,29.45
2023-04-07T05:42:45.932Z,31.05
2023-04-07T05:45:13.915Z,30.27
2023-04-07T05:47:47.069Z,30.83
2023-04-07T05:50:15.010Z,33.13
2023-04-07T05:52:44.666Z,28.45
2023-04-07T05:55:21.696Z,30.13
2023-04-07T05:57:49.330Z,29.50
2023-04-07T06:00:20.370Z,36.08
2023-04-07T06:02:56.529Z,34.92
2023-04-07T06:05:24.622Z,32.17
2023-04-07T06:07:54.363Z,34.10
2023-04-07T06:10:22.529Z,35.50
2023-04-07T06:12:49.121Z,33.33
2023-04-07T06:15:16.415Z,35.75
2023-04-07T06:17:45.473Z,36.58
2023-04-07T06:20:13.996Z,35.58
2023-04-07T06:22:40.820Z,36.20
2023-04-07T06:25:08.495Z,38.97
2023-04-07T06:27:35.983Z,40.13
2023-04-07T06:30:03.550Z,41.13
2023-04-07T06:32:30.190Z,38.97
2023-04-07T06:34:57.767Z,44.15
2023-04-07T06:37:25.890Z,43.00
2023-04-07T06:39:54.542Z,40.50
2023-04-07T06:42:21.193Z,42.97
2023-04-07T06:44:58.071Z,39.20
2023-04-07T06:47:24.883Z,44.85
2023-04-07T06:49:52.171Z,42.55
2023-04-07T06:52:18.747Z,44.75
2023-04-07T06:54:46.137Z,50.65
2023-04-07T06:57:12.890Z,45.65
2023-04-07T06:59:40.139Z,48.70
2023-04-07T07:02:07.870Z,43.65
2023-04-07T07:04:35.717Z,45.50
2023-04-07T07:07:03.248Z,38.85
2023-04-07T07:09:30.181Z,41.28
2023-04-07T07:11:57.491Z,42.63
2023-04-07T07:14:24.774Z,40.58
2023-04-07T07:16:51.404Z,38.75
2023-04-07T07:19:18.648Z,37.10
2023-04-07T07:21:45.595Z,39.22
2023-04-07T07:24:13.155Z,42.15
2023-04-07T07:26:43.445Z,40.28
2023-04-07T07:29:11.468Z,36.35
2023-04-07T07:31:38.211Z,36.65
2023-04-07T07:34:05.524Z,40.85
2023-04-07T07:36:32.236Z,45.63
2023-04-07T07:38:59.532Z,44.30
2023-04-07T07:41:26.334Z,45.83
2023-04-07T07:43:53.615Z,38.25
2023-04-07T07:46:20.308Z,43.42
2023-04-07T07:48:47.672Z,37.13
2023-04-07T07:51:14.314Z,35.28
2023-04-07T07:53:41.495Z,37.72
2023-04-07T07:56:08.104Z,39.40
2023-04-07T07:58:35.485Z,36.40
2023-04-07T08:01:02.224Z,45.05
2023-04-07T08:03:29.574Z,32.05
2023-04-07T08:05:56.388Z,45.35
2023-04-07T08:08:23.730Z,42.63
2023-04-07T08:10:50.558Z,43.28
2023-04-07T08:13:17.484Z,51.75
2023-04-07T08:15:44.093Z,50.17
2023-04-07T08:18:11.152Z,46.20
2023-04-07T08:20:37.802Z,46.15
2023-04-07T08:23:05.349Z,48.60
2023-04-07T08:25:31.986Z,54.08
2023-04-07T08:27:59.278Z,49.85
2023-04-07T08:30:25.927Z,48.83
2023-04-07T08:32:53.196Z,52.40
2023-04-07T08:35:19.938Z,45.60
2023-04-07T08:37:47.672Z,51.08
2023-04-07T08:40:14.306Z,48.53
2023-04-07T08:42:45.528Z,44.15
2023-04-07T08:45:13.717Z,38.83
2023-04-07T08:47:44.290Z,45.80
2023-04-07T08:50:11.938Z,41.55
2023-04-07T08:52:53.514Z,36.45
2023-04-07T08:55:20.693Z,42.83
2023-04-07T08:57:48.578Z,33.53
2023-04-07T09:00:15.877Z,37.38
2023-04-07T09:02:49.164Z,45.70
2023-04-07T09:05:15.936Z,44.67
2023-04-07T09:07:43.522Z,37.38
2023-04-07T09:10:10.591Z,35.10
2023-04-07T09:12:38.603Z,35.45
2023-04-07T09:15:08.778Z,44.22
2023-04-07T09:17:36.386Z,31.50
2023-04-07T09:20:04.436Z,33.17
2023-04-07T09:22:43.174Z,39.05
2023-04-07T09:25:25.993Z,35.28
2023-04-07T09:28:01.733Z,43.92
2023-04-07T09:30:30.009Z,38.00
2023-04-07T09:32:58.299Z,32.17
2023-04-07T09:35:25.474Z,32.67
2023-04-07T09:38:07.211Z,37.22
2023-04-07T09:40:34.602Z,40.60
2023-04-07T09:43:03.181Z,44.75
2023-04-07T09:45:36.963Z,44.78
2023-04-07T09:48:18.199Z,47.67
2023-04-07T09:50:49.217Z,52.60
2023-04-07T09:53:17.331Z,49.20
2023-04-07T09:55:44.886Z,50.97
2023-04-07T09:58:14.091Z,41.67
2023-04-07T10:00:42.138Z,51.42
2023-04-07T10:03:09.811Z,53.33
2023-04-07T10:05:36.918Z,40.03
2023-04-07T10:08:06.959Z,38.78
2023-04-07T10:10:35.194Z,33.28
2023-04-07T10:13:06.367Z,41.83
2023-04-07T10:15:33.608Z,31.75
2023-04-07T10:18:01.491Z,34.72
2023-04-07T10:20:29.238Z,37.53
2023-04-07T10:23:04.333Z,37.22
2023-04-07T10:25:31.396Z,32.47
2023-04-07T10:28:06.885Z,35.03
2023-04-07T10:30:34.988Z,30.88
2023-04-07T10:33:02.755Z,41.65
2023-04-07T10:36:06.140Z,27.88
2023-04-07T10:38:33.871Z,40.10
2023-04-07T10:41:00.593Z,28.77
2023-04-07T10:43:40.076Z,33.88
2023-04-07T10:46:06.886Z,32.47
2023-04-07T10:48:34.229Z,31.45
2023-04-07T10:51:07.759Z,30.65
2023-04-07T10:53:35.367Z,27.27
2023-04-07T10:56:02.568Z,29.02
2023-04-07T10:58:33.541Z,28.13
2023-04-07T11:01:03.417Z,27.55
2023-04-07T11:03:34.262Z,24.38
2023-04-07T11:06:12.237Z,22.60
2023-04-07T11:08:49.174Z,21.85
2023-04-07T11:11:21.009Z,24.77
2023-04-07T11:13:50.162Z,29.55
2023-04-07T11:16:18.880Z,21.55
2023-04-07T11:18:48.256Z,26.70
2023-04-07T11:21:18.973Z,29.48
2023-04-07T11:23:48.391Z,23.08
2023-04-07T11:26:16.234Z,18.42
2023-04-07T11:28:47.026Z,16.80
2023-04-07T11:31:26.070Z,15.13
2023-04-07T11:34:00.661Z,16.98
2023-04-07T11:36:41.892Z,16.25
2023-04-07T11:39:22.037Z,21.25
2023-04-07T11:41:50.811Z,19.98
2023-04-07T11:44:17.509Z,20.23
2023-04-07T11:46:55.206Z,21.65
2023-04-07T11:49:23.755Z,20.58
2023-04-07T11:52:03.366Z,20.55
2023-04-07T11:54:47.003Z,22.42
2023-04-07T11:57:14.863Z,21.00
2023-04-07T11:59:42.048Z,18.00
2023-04-07T12:02:10.052Z,19.75
2023-04-07T12:04:39.718Z,17.05
2023-04-07T12:07:11.728Z,16.08
2023-04-07T12:09:38.773Z,25.10
2023-04-07T12:12:08.105Z,18.48
2023-04-07T12:14:35.979Z,25.08
2023-04-07T12:17:04.408Z,19.60
2023-04-07T12:19:33.505Z,14.50
2023-04-07T12:22:00.881Z,21.15
2023-04-07T12:24:28.534Z,25.08
2023-04-07T12:26:56.398Z,17.13
2023-04-07T12:29:23.115Z,19.63
2023-04-07T12:31:51.481Z,19.27
2023-04-07T12:34:18.697Z,26.17
2023-04-07T12:36:46.047Z,24.48
2023-04-07T12:39:12.778Z,24.88
2023-04-07T12:41:40.324Z,29.23
2023-04-07T12:44:07.162Z,31.05
2023-04-07T12:46:34.553Z,23.30
2023-04-07T12:49:01.239Z,22.60
2023-04-07T12:51:28.847Z,34.08
2023-04-07T12:53:55.631Z,37.22
2023-04-07T12:56:22.938Z,125.95
2023-04-07T12:58:49.644Z,136.60
2023-04-07T13:01:17.208Z,202.52
2023-04-07T13:03:44.257Z,153.60
2023-04-07T13:06:11.960Z,101.40
2023-04-07T13:08:39.432Z,51.20
2023-04-07T13:11:07.261Z,33.80
2023-04-07T13:13:34.206Z,31.98
2023-04-07T13:16:02.116Z,26.02
2023-04-07T13:18:28.764Z,28.92
2023-04-07T13:21:19.835Z,25.58
2023-04-07T13:23:44.051Z,24.33
2023-04-07T13:26:20.863Z,35.95
2023-04-07T13:28:48.511Z,22.23
2023-04-07T13:31:16.539Z,28.95
2023-04-07T13:33:43.517Z,32.10
2023-04-07T13:36:11.065Z,38.53
2023-04-07T13:38:37.798Z,26.75
2023-04-07T13:41:05.092Z,26.67
2023-04-07T13:43:31.670Z,28.17
2023-04-07T13:45:59.035Z,26.02
2023-04-07T13:48:25.783Z,26.98
2023-04-07T13:50:53.119Z,29.10
2023-04-07T13:53:20.129Z,27.80
2023-04-07T13:55:47.455Z,25.85
2023-04-07T13:58:14.205Z,29.80
2023-04-07T14:00:41.736Z,33.42
2023-04-07T14:03:09.319Z,26.25
2023-04-07T14:05:36.808Z,32.95
2023-04-07T14:08:03.489Z,21.35
2023-04-07T14:10:30.804Z,50.65
2023-04-07T14:12:57.444Z,43.35
2023-04-07T14:15:24.821Z,20.65
2023-04-07T14:17:51.558Z,26.80
2023-04-07T14:20:18.832Z,27.25
2023-04-07T14:22:45.656Z,75.13
2023-04-07T14:25:12.983Z,65.18
2023-04-07T14:27:39.627Z,40.30
2023-04-07T14:30:07.496Z,39.47
2023-04-07T14:32:34.335Z,59.03
2023-04-07T14:35:02.759Z,48.72
2023-04-07T14:37:29.601Z,29.55
2023-04-07T14:42:29.532Z,38.53
2023-04-07T14:44:56.972Z,27.30
2023-04-07T14:47:23.581Z,23.80
2023-04-07T14:49:53.190Z,27.98
2023-04-07T14:52:21.578Z,27.30
2023-04-07T14:54:49.045Z,19.98
2023-04-07T14:57:16.391Z,21.05
2023-04-07T14:59:43.381Z,27.38
2023-04-07T15:02:10.742Z,24.25
2023-04-07T15:04:37.610Z,20.63
2023-04-07T15:07:05.548Z,28.13
2023-04-07T15:09:32.162Z,33.40
2023-04-07T15:12:00.631Z,28.92
2023-04-07T15:14:27.484Z,32.58
2023-04-07T15:16:54.970Z,29.90
2023-04-07T15:19:21.617Z,25.70
2023-04-07T15:21:49.046Z,30.38
2023-04-07T15:24:16.419Z,31.60
2023-04-07T15:26:44.118Z,31.50
2023-04-07T15:29:10.804Z,31.50
2023-04-07T15:31:38.142Z,25.80
2023-04-07T15:34:05.233Z,31.08
2023-04-07T15:36:32.572Z,33.20
2023-04-07T15:39:04.331Z,29.48
2023-04-07T15:41:31.766Z,27.27
2023-04-07T15:44:01.776Z,30.42
2023-04-07T15:46:29.341Z,24.23
2023-04-07T15:48:55.983Z,33.80
2023-04-07T15:51:23.470Z,33.47
2023-04-07T15:53:50.457Z,33.47
2023-04-07T15:56:17.825Z,53.28
2023-04-07T15:58:45.769Z,35.53
2023-04-07T16:01:13.240Z,29.42
2023-04-07T16:03:39.989Z,36.95
2023-04-07T16:06:07.376Z,42.00
2023-04-07T16:08:34.082Z,35.75
2023-04-07T16:11:01.337Z,34.50
2023-04-07T16:13:27.991Z,37.40
2023-04-07T16:15:58.600Z,37.78
2023-04-07T16:18:25.464Z,45.53
2023-04-07T16:20:52.812Z,40.55
2023-04-07T16:23:19.464Z,23.92
2023-04-07T16:25:46.681Z,31.92
2023-04-07T16:28:13.317Z,28.52
2023-04-07T16:30:40.668Z,34.28
2023-04-07T16:33:07.322Z,35.45
2023-04-07T16:35:34.734Z,33.80
2023-04-07T16:38:05.834Z,26.15
2023-04-07T16:40:33.782Z,31.35
2023-04-07T16:43:00.470Z,33.17
2023-04-07T16:45:27.752Z,35.08
2023-04-07T16:47:54.463Z,33.83
2023-04-07T16:50:22.097Z,36.97
2023-04-07T16:52:48.796Z,34.45
2023-04-07T16:55:16.128Z,39.22
2023-04-07T16:57:42.734Z,35.50
2023-04-07T17:00:10.666Z,37.10
2023-04-07T17:02:37.402Z,37.30
2023-04-07T17:05:05.137Z,35.65
2023-04-07T17:07:31.770Z,37.00
2023-04-07T17:09:59.185Z,44.13
2023-04-07T17:12:26.293Z,35.30
2023-04-07T17:14:53.554Z,37.95
2023-04-07T17:17:20.549Z,45.72
2023-04-07T17:19:47.758Z,38.20
2023-04-07T17:22:14.466Z,50.58
2023-04-07T17:24:41.734Z,56.88
2023-04-07T17:27:08.420Z,99.70
2023-04-07T17:29:35.705Z,115.15
2023-04-07T17:32:02.538Z,67.13
2023-04-07T17:34:29.956Z,46.28
2023-04-07T17:36:56.564Z,45.60
2023-04-07T17:39:23.843Z,38.55
2023-04-07T17:41:50.542Z,40.72
2023-04-07T17:44:17.973Z,43.33
2023-04-07T17:46:45.393Z,35.15
2023-04-07T17:49:12.908Z,40.53
2023-04-07T17:51:39.647Z,48.30
2023-04-07T17:54:07.248Z,40.75
2023-04-07T17:56:33.875Z,32.08
2023-04-07T17:59:01.587Z,37.33
2023-04-07T18:01:28.348Z,41.03
2023-04-07T18:03:55.754Z,39.70
2023-04-07T18:06:23.296Z,40.58
2023-04-07T18:08:50.665Z,40.90
2023-04-07T18:11:18.508Z,39.72
2023-04-07T18:13:45.766Z,39.25
2023-04-07T18:16:17.293Z,31.27
2023-04-07T18:18:46.698Z,40.10
2023-04-07T18:21:13.322Z,36.80
2023-04-07T18:23:40.538Z,45.67
2023-04-07T18:26:07.180Z,40.03
2023-04-07T18:28:34.951Z,42.97
2023-04-07T18:31:03.649Z,38.42
2023-04-07T18:33:33.242Z,38.92
2023-04-07T18:36:03.381Z,43.67
2023-04-07T18:38:30.979Z,44.95
2023-04-07T18:40:57.715Z,44.95
2023-04-07T18:43:26.312Z,46.13
2023-04-07T18:45:54.115Z,39.83
2023-04-07T18:48:21.550Z,41.33
2023-04-07T18:50:53.071Z,53.30
2023-04-07T18:53:21.479Z,36.53
2023-04-07T18:55:49.369Z,43.10
2023-04-07T18:58:16.256Z,45.63
2023-04-07T19:00:44.702Z,35.38
2023-04-07T19:03:11.941Z,40.75
2023-04-07T19:05:42.445Z,35.85
2023-04-07T19:08:09.668Z,45.58
2023-04-07T19:10:36.954Z,42.15
2023-04-07T19:13:04.480Z,39.30
2023-04-07T19:15:40.848Z,45.42
2023-04-07T19:18:10.482Z,44.80
2023-04-07T19:20:37.139Z,47.88
2023-04-07T19:23:04.041Z,52.15
2023-04-07T19:25:31.199Z,81.70
2023-04-07T19:27:59.008Z,77.50
2023-04-07T19:30:25.747Z,50.95
2023-04-07T19:32:52.852Z,46.50
2023-04-07T19:35:19.716Z,45.38
2023-04-07T19:37:47.963Z,38.40
2023-04-07T19:40:15.872Z,49.20
2023-04-07T19:42:42.542Z,83.72
2023-04-07T19:45:10.372Z,89.03
2023-04-07T19:47:37.618Z,68.97
2023-04-07T19:50:05.910Z,62.50
2023-04-07T19:52:32.962Z,52.70
2023-04-07T19:55:01.343Z,47.70
2023-04-07T19:57:28.860Z,48.38
2023-04-07T19:59:55.966Z,43.05
2023-04-07T20:02:22.920Z,49.47
2023-04-07T20:04:49.917Z,42.55
2023-04-07T20:07:16.655Z,48.72
2023-04-07T20:09:43.929Z,50.42
2023-04-07T20:12:10.753Z,48.95
2023-04-07T20:14:38.062Z,53.40
2023-04-07T20:17:04.756Z,47.90
2023-04-07T20:19:32.056Z,60.05
2023-04-07T20:21:58.638Z,47.05
2023-04-07T20:24:26.171Z,49.28
2023-04-07T20:26:52.761Z,48.55
2023-04-07T20:29:21.750Z,55.03
2023-04-07T20:31:48.880Z,50.42
2023-04-07T20:34:16.783Z,48.25
2023-04-07T20:36:43.607Z,54.30
2023-04-07T20:39:10.985Z,48.65
2023-04-07T20:41:37.684Z,50.60
2023-04-07T20:44:05.372Z,50.35
2023-04-07T20:46:33.312Z,50.63
2023-04-07T20:49:00.375Z,50.88
2023-04-07T20:51:27.150Z,47.45
2023-04-07T20:53:54.418Z,58.15
2023-04-07T20:56:21.617Z,60.55
2023-04-07T20:58:49.248Z,59.03
2023-04-07T21:01:16.036Z,55.47
2023-04-07T21:03:43.421Z,57.70
2023-04-07T21:06:10.050Z,60.45
2023-04-07T21:08:37.296Z,55.30
2023-04-07T21:11:03.924Z,75.78
2023-04-07T21:13:31.197Z,69.07
2023-04-07T21:15:59.177Z,62.92
2023-04-07T21:18:27.393Z,60.28
2023-04-07T21:20:56.643Z,54.13
2023-04-07T21:23:23.926Z,67.13
2023-04-07T21:25:50.523Z,66.03
2023-04-07T21:28:17.819Z,57.80
2023-04-07T21:30:44.514Z,68.20
2023-04-07T21:33:13.678Z,77.75
2023-04-07T21:35:40.414Z,59.33
2023-04-07T21:38:07.671Z,60.33
2023-04-07T21:40:34.259Z,64.22
2023-04-07T21:43:01.960Z,65.07
2023-04-07T21:45:29.472Z,72.22
2023-04-07T21:47:56.880Z,77.60
2023-04-07T21:50:23.916Z,95.53
2023-04-07T21:52:51.804Z,189.82
2023-04-07T21:55:18.737Z,133.63
2023-04-07T21:57:46.843Z,92.00
2023-04-07T22:00:14.401Z,90.30
2023-04-07T22:02:42.070Z,132.05
2023-04-07T22:05:09.827Z,140.63
2023-04-07T22:07:37.606Z,126.35
2023-04-07T22:10:04.661Z,143.32
2023-04-07T22:12:31.930Z,85.95
2023-04-07T22:14:58.549Z,97.35
2023-04-07T22:17:25.875Z,144.40
2023-04-07T22:19:52.498Z,107.28
2023-04-07T22:22:19.827Z,87.70
2023-04-07T22:24:46.437Z,85.75
2023-04-07T22:27:13.721Z,86.10
2023-04-07T22:29:40.349Z,75.38
2023-04-07T22:32:07.657Z,84.63
2023-04-07T22:34:34.283Z,70.07
2023-04-07T22:37:01.632Z,81.25
2023-04-07T22:39:28.209Z,83.82
2023-04-07T22:41:55.447Z,91.63
2023-04-07T22:44:22.137Z,97.65
2023-04-07T22:46:49.365Z,81.93
2023-04-07T22:49:16.573Z,82.80
2023-04-07T22:51:48.518Z,87.65
2023-04-07T22:54:18.126Z,77.40
2023-04-07T22:56:45.452Z,98.90
2023-04-07T22:59:12.086Z,101.05
2023-04-07T23:01:39.596Z,102.80
2023-04-07T23:04:06.252Z,92.55
2023-04-07T23:06:33.658Z,96.93
2023-04-07T23:09:00.513Z,91.13
2023-04-07T23:11:27.794Z,84.93
2023-04-07T23:13:54.435Z,106.40
2023-04-07T23:16:21.772Z,99.53
2023-04-07T23:18:48.740Z,90.50
2023-04-07T23:21:16.315Z,101.95
2023-04-07T23:23:43.292Z,97.90
2023-04-07T23:26:10.550Z,111.20
2023-04-07T23:28:37.172Z,102.68
2023-04-07T23:31:06.868Z,98.45
2023-04-07T23:33:33.899Z,121.72
2023-04-07T23:36:01.511Z,105.40
2023-04-07T23:38:28.150Z,103.00
2023-04-07T23:40:55.392Z,108.95
2023-04-07T23:43:22.084Z,100.75
2023-04-07T23:45:49.522Z,93.93
2023-04-07T23:48:16.304Z,91.32
2023-04-07T23:50:43.655Z,93.82
2023-04-07T23:53:10.308Z,93.63
2023-04-07T23:55:37.553Z,94.60
2023-04-07T23:58:04.270Z,95.18
